createdAt,value
2023-03-21T02:23:41.656Z,3086.00
2023-03-21T02:24:46.309Z,3078.00
2023-03-21T02:25:42.615Z,3080.00
2023-03-21T02:26:43.908Z,3081.00
2023-03-21T02:27:41.590Z,3079.00
2023-03-21T02:28:41.572Z,3082.00
2023-03-21T02:29:41.566Z,3080.00
2023-03-21T02:30:51.165Z,3083.00
2023-03-21T02:31:42.590Z,3080.00
2023-03-21T02:32:41.511Z,3083.00
2023-03-21T02:33:41.507Z,3084.00
2023-03-21T02:34:41.478Z,3084.00
2023-03-21T02:35:47.138Z,3097.00
2023-03-21T02:36:41.503Z,3079.00
2023-03-21T02:37:43.010Z,3081.00
2023-03-21T02:38:41.416Z,3091.00
2023-03-21T02:39:41.407Z,3092.00
2023-03-21T02:40:41.388Z,3096.00
2023-03-21T02:41:41.375Z,3090.00
2023-03-21T02:42:43.330Z,3071.00
2023-03-21T02:43:41.348Z,3072.00
2023-03-21T02:44:41.334Z,3072.00
2023-03-21T02:45:41.374Z,3079.00
2023-03-21T02:46:47.075Z,3073.00
2023-03-21T02:47:42.342Z,3072.00
2023-03-21T02:48:50.557Z,3074.00
2023-03-21T02:49:42.275Z,3072.00
2023-03-21T02:50:41.267Z,3076.00
2023-03-21T02:51:41.268Z,3076.00
2023-03-21T02:52:41.242Z,3078.00
2023-03-21T02:53:41.235Z,3081.00
2023-03-21T02:54:47.859Z,3069.00
2023-03-21T02:55:42.227Z,3070.00
2023-03-21T02:56:41.220Z,3070.00
2023-03-21T02:57:43.435Z,3032.00
2023-03-21T02:58:41.406Z,2984.00
2023-03-21T02:59:51.670Z,2953.00
2023-03-21T03:00:42.377Z,2918.00
2023-03-21T03:01:41.401Z,2870.00
2023-03-21T03:02:41.356Z,2843.00
2023-03-21T03:03:41.350Z,2785.00
2023-03-21T03:04:41.432Z,2759.00
2023-03-21T03:05:41.337Z,2718.00
2023-03-21T03:06:41.321Z,2682.00
2023-03-21T03:07:41.310Z,2630.00
2023-03-21T03:08:50.182Z,2602.00
2023-03-21T03:09:42.317Z,2573.00
2023-03-21T03:10:41.277Z,2527.00
2023-03-21T03:11:41.293Z,2489.00
2023-03-21T03:12:41.268Z,2462.00
2023-03-21T03:13:41.268Z,2419.00
2023-03-21T03:14:53.139Z,2387.00
2023-03-21T03:16:41.258Z,2344.00
2023-03-21T03:17:41.239Z,2316.00
2023-03-21T03:18:41.245Z,2286.00
2023-03-21T03:19:49.770Z,2240.00
2023-03-21T03:21:41.222Z,2187.00
2023-03-21T03:22:41.226Z,2170.00
2023-03-21T03:23:41.222Z,2142.00
2023-03-21T03:24:41.222Z,2113.00
2023-03-21T03:25:43.296Z,2100.00
2023-03-21T03:26:41.220Z,2088.00
2023-03-21T03:27:41.221Z,2089.00
2023-03-21T03:28:41.272Z,2075.00
2023-03-21T03:29:41.221Z,2063.00
2023-03-21T03:30:48.628Z,2035.00
2023-03-21T03:32:41.202Z,2024.00
2023-03-21T03:33:41.212Z,2014.00
2023-03-21T03:34:41.211Z,2012.00
2023-03-21T03:35:41.219Z,2015.00
2023-03-21T03:36:41.268Z,2015.00
2023-03-21T03:37:41.179Z,2016.00
2023-03-21T03:38:41.174Z,2000.00
2023-03-21T03:39:41.177Z,2009.00
2023-03-21T03:40:41.745Z,2007.00
2023-03-21T03:42:04.424Z,2015.00
2023-03-21T03:43:41.141Z,2016.00
2023-03-21T03:44:41.143Z,2015.00
2023-03-21T03:45:41.144Z,2011.00
2023-03-21T03:46:41.223Z,1989.00
2023-03-21T03:47:50.785Z,1959.00
2023-03-21T03:49:41.153Z,1938.00
2023-03-21T03:50:41.115Z,1927.00
2023-03-21T03:51:41.103Z,1901.00
2023-03-21T03:52:53.467Z,1881.00
2023-03-21T03:54:41.089Z,1860.00
2023-03-21T03:55:41.088Z,1845.00
2023-03-21T03:56:41.090Z,1849.00
2023-03-21T03:57:41.065Z,1847.00
2023-03-21T03:58:45.797Z,1847.00
2023-03-21T04:00:41.062Z,1849.00
2023-03-21T04:01:41.079Z,1851.00
2023-03-21T04:02:41.097Z,1855.00
2023-03-21T04:03:49.486Z,1851.00
2023-03-21T04:05:41.008Z,1850.00
2023-03-21T04:06:41.009Z,1849.00
2023-03-21T04:07:40.994Z,1853.00
2023-03-21T04:08:40.985Z,1853.00
2023-03-21T04:09:44.853Z,1860.00
2023-03-21T04:10:40.988Z,1861.00
2023-03-21T04:11:40.971Z,1862.00
2023-03-21T04:12:40.969Z,1858.00
2023-03-21T04:13:40.963Z,1844.00
2023-03-21T04:14:45.613Z,1837.00
2023-03-21T04:16:40.966Z,1854.00
2023-03-21T04:17:40.942Z,1842.00
2023-03-21T04:18:40.932Z,1824.00
2023-03-21T04:19:40.943Z,1800.00
2023-03-21T04:20:40.942Z,1774.00
2023-03-21T04:21:40.913Z,1756.00
2023-03-21T04:22:40.920Z,1734.00
2023-03-21T04:23:40.926Z,1727.00
2023-03-21T04:24:40.911Z,1723.00
2023-03-21T04:25:50.771Z,1714.00
2023-03-21T04:26:40.917Z,1716.00
2023-03-21T04:27:40.908Z,1718.00
2023-03-21T04:28:40.927Z,1726.00
2023-03-21T04:29:40.920Z,1739.00
2023-03-21T04:30:41.305Z,1763.00
2023-03-21T04:31:40.926Z,1717.00
2023-03-21T04:32:40.894Z,1726.00
2023-03-21T04:33:40.899Z,1745.00
2023-03-21T04:34:40.903Z,1765.00
2023-03-21T04:35:40.898Z,1811.00
2023-03-21T04:36:40.889Z,1826.00
2023-03-21T04:37:40.905Z,1829.00
2023-03-21T04:38:40.889Z,1837.00
2023-03-21T04:39:40.900Z,1840.00
2023-03-21T04:40:40.904Z,1835.00
2023-03-21T04:41:40.903Z,1833.00
2023-03-21T04:42:40.902Z,1831.00
2023-03-21T04:43:40.884Z,1825.00
2023-03-21T04:44:40.889Z,1821.00
2023-03-21T04:45:40.982Z,1824.00
2023-03-21T04:46:40.898Z,1822.00
2023-03-21T04:47:40.942Z,1821.00
2023-03-21T04:48:40.895Z,1807.00
2023-03-21T04:49:40.895Z,1805.00
2023-03-21T04:50:40.912Z,1802.00
2023-03-21T04:51:40.899Z,1795.00
2023-03-21T04:52:40.910Z,1791.00
2023-03-21T04:53:40.898Z,1788.00
2023-03-21T04:54:40.904Z,1796.00
2023-03-21T04:55:40.921Z,1797.00
2023-03-21T04:56:40.931Z,1794.00
2023-03-21T04:57:40.906Z,1803.00
2023-03-21T04:58:40.915Z,1805.00
2023-03-21T04:59:40.905Z,1805.00
2023-03-21T05:00:40.963Z,1809.00
2023-03-21T05:01:40.911Z,1812.00
2023-03-21T05:02:40.914Z,1813.00
2023-03-21T05:03:40.936Z,1812.00
2023-03-21T05:04:40.914Z,1812.00
2023-03-21T05:05:40.916Z,1802.00
2023-03-21T05:06:40.923Z,1790.00
2023-03-21T05:07:40.913Z,1775.00
2023-03-21T05:08:40.921Z,1765.00
2023-03-21T05:09:40.912Z,1752.00
2023-03-21T05:10:40.916Z,1730.00
2023-03-21T05:11:40.925Z,1727.00
2023-03-21T05:12:40.916Z,1704.00
2023-03-21T05:13:40.920Z,1680.00
2023-03-21T05:14:40.918Z,1662.00
2023-03-21T05:15:40.923Z,1640.00
2023-03-21T05:16:40.937Z,1628.00
2023-03-21T05:17:40.929Z,1623.00
2023-03-21T05:18:40.919Z,1623.00
2023-03-21T05:19:40.921Z,1608.00
2023-03-21T05:20:40.931Z,1590.00
2023-03-21T05:21:40.923Z,1577.00
2023-03-21T05:22:40.929Z,1567.00
2023-03-21T05:23:40.938Z,1546.00
2023-03-21T05:24:40.939Z,1531.00
2023-03-21T05:25:40.937Z,1524.00
2023-03-21T05:26:40.943Z,1508.00
2023-03-21T05:27:40.950Z,1501.00
2023-03-21T05:28:40.954Z,1498.00
2023-03-21T05:29:40.957Z,1498.00
2023-03-21T05:30:40.984Z,1487.00
2023-03-21T05:31:40.966Z,1491.00
2023-03-21T05:32:40.971Z,1492.00
2023-03-21T05:33:40.985Z,1496.00
2023-03-21T05:34:40.978Z,1493.00
2023-03-21T05:35:41.167Z,1501.00
2023-03-21T05:36:40.985Z,1502.00
2023-03-21T05:37:40.989Z,1515.00
2023-03-21T05:38:40.988Z,1527.00
2023-03-21T05:39:40.978Z,1544.00
2023-03-21T05:40:40.983Z,1548.00
2023-03-21T05:41:40.987Z,1564.00
2023-03-21T05:42:40.987Z,1568.00
2023-03-21T05:43:41.015Z,1582.00
2023-03-21T05:44:41.012Z,1597.00
2023-03-21T05:45:41.011Z,1599.00
2023-03-21T05:46:41.021Z,1618.00
2023-03-21T05:47:41.039Z,1635.00
2023-03-21T05:48:41.013Z,1662.00
2023-03-21T05:49:41.023Z,1676.00
2023-03-21T05:50:41.006Z,1694.00
2023-03-21T05:51:40.989Z,1690.00
2023-03-21T05:52:40.996Z,1699.00
2023-03-21T05:53:40.987Z,1719.00
2023-03-21T05:54:40.990Z,1727.00
2023-03-21T05:55:40.970Z,1728.00
2023-03-21T05:59:40.964Z,1742.00
2023-03-21T07:05:40.863Z,1269.00
2023-03-21T07:06:40.787Z,1136.00
2023-03-21T07:07:40.803Z,1130.00
2023-03-21T07:08:40.823Z,1206.00
2023-03-21T07:09:40.863Z,1303.00
2023-03-21T07:10:40.819Z,1294.00
2023-03-21T07:11:40.814Z,1042.00
2023-03-21T07:12:40.867Z,1050.00
2023-03-21T07:13:40.833Z,970.00
2023-03-21T07:14:40.842Z,1039.00
2023-03-21T07:15:40.829Z,1093.00
2023-03-21T07:16:40.855Z,1225.00
2023-03-21T07:17:40.839Z,1392.00
2023-03-21T07:18:40.819Z,1479.00
2023-03-21T07:19:40.844Z,1553.00
2023-03-21T07:20:40.813Z,1583.00
2023-03-21T07:21:40.821Z,1632.00
2023-03-21T07:22:40.825Z,1694.00
2023-03-21T07:23:40.816Z,1738.00
2023-03-21T07:24:40.807Z,1826.00
2023-03-21T07:25:41.184Z,1874.00
2023-03-21T07:26:40.817Z,1929.00
2023-03-21T07:27:41.455Z,1989.00
2023-03-21T07:28:40.811Z,2045.00
2023-03-21T07:29:40.838Z,2098.00
2023-03-21T07:30:40.792Z,2140.00
2023-03-21T07:31:40.896Z,2178.00
2023-03-21T07:32:40.841Z,2207.00
2023-03-21T07:33:40.766Z,2236.00
2023-03-21T07:34:40.767Z,2258.00
2023-03-21T07:35:41.318Z,2283.00
2023-03-21T07:36:40.758Z,2306.00
2023-03-21T07:37:40.777Z,2328.00
2023-03-21T07:38:40.732Z,2356.00
2023-03-21T07:39:40.729Z,2376.00
2023-03-21T07:40:40.720Z,2373.00
2023-03-21T07:41:40.745Z,2361.00
2023-03-21T07:42:40.724Z,2363.00
2023-03-21T07:43:40.715Z,2370.00
2023-03-21T07:44:40.706Z,2373.00
2023-03-21T07:45:41.015Z,2349.00
2023-03-21T07:46:40.676Z,2428.00
2023-03-21T07:47:40.737Z,2398.00
2023-03-21T07:48:40.684Z,2240.00
2023-03-21T07:49:40.687Z,1726.00
2023-03-21T07:50:40.685Z,1245.00
2023-03-21T07:51:40.676Z,1219.00
2023-03-21T07:52:40.669Z,1121.00
2023-03-21T07:53:40.672Z,981.00
2023-03-21T07:54:40.746Z,909.00
2023-03-21T07:55:40.807Z,1133.00
2023-03-21T07:56:41.241Z,1163.00
2023-03-21T07:57:40.784Z,1205.00
2023-03-21T07:58:40.674Z,1285.00
2023-03-21T07:59:40.775Z,1087.00
2023-03-21T08:00:40.648Z,837.00
2023-03-21T08:01:40.672Z,674.00
2023-03-21T08:02:40.753Z,874.00
2023-03-21T08:03:40.810Z,982.00
2023-03-21T08:04:40.668Z,1118.00
2023-03-21T08:05:41.054Z,1004.00
2023-03-21T08:06:40.658Z,1030.00
2023-03-21T08:07:40.728Z,877.00
2023-03-21T08:08:40.733Z,657.00
2023-03-21T08:09:40.656Z,561.00
2023-03-21T08:10:40.657Z,534.00
2023-03-21T08:11:40.687Z,509.00
2023-03-21T08:12:40.761Z,532.00
2023-03-21T08:13:40.661Z,532.00
2023-03-21T08:14:40.646Z,532.00
2023-03-21T08:15:40.753Z,581.00
2023-03-21T08:16:40.706Z,594.00
2023-03-21T08:17:40.642Z,453.00
2023-03-21T08:18:40.680Z,540.00
2023-03-21T08:19:40.657Z,411.00
2023-03-21T08:20:40.778Z,421.00
2023-03-21T08:21:40.706Z,500.00
2023-03-21T08:22:40.633Z,495.00
2023-03-21T08:23:40.710Z,438.00
2023-03-21T08:24:40.717Z,400.00
2023-03-21T08:25:40.765Z,400.00
2023-03-21T08:26:40.723Z,400.00
2023-03-21T08:27:40.894Z,412.00
2023-03-21T08:28:41.261Z,491.00
2023-03-21T08:29:40.718Z,461.00
2023-03-21T08:30:40.633Z,525.00
2023-03-21T08:31:40.688Z,525.00
2023-03-21T08:32:40.640Z,526.00
2023-03-21T08:33:40.628Z,400.00
2023-03-21T08:34:40.610Z,400.00
2023-03-21T08:35:41.405Z,400.00
2023-03-21T08:36:40.606Z,447.00
2023-03-21T08:37:40.611Z,549.00
2023-03-21T08:38:40.604Z,546.00
2023-03-21T08:39:40.680Z,716.00
2023-03-21T08:40:40.599Z,812.00
2023-03-21T08:41:40.618Z,1162.00
2023-03-21T08:42:40.611Z,1484.00
2023-03-21T08:43:40.625Z,1657.00
2023-03-21T08:44:40.606Z,1821.00
2023-03-21T08:45:40.682Z,1999.00
2023-03-21T08:46:40.717Z,2162.00
2023-03-21T08:47:40.638Z,2267.00
2023-03-21T08:48:40.630Z,2382.00
2023-03-21T08:49:40.580Z,2505.00
2023-03-21T08:50:40.566Z,2509.00
2023-03-21T08:51:40.570Z,2533.00
2023-03-21T08:52:40.558Z,2592.00
2023-03-21T08:53:40.555Z,2701.00
2023-03-21T08:54:40.544Z,2857.00
2023-03-21T08:55:40.572Z,2929.00
2023-03-21T08:56:40.544Z,2962.00
2023-03-21T08:57:40.535Z,3006.00
2023-03-21T08:58:40.528Z,3019.00
2023-03-21T08:59:40.529Z,3010.00
2023-03-21T09:00:40.498Z,3074.00
2023-03-21T09:01:40.552Z,3094.00
2023-03-21T09:02:40.512Z,3096.00
2023-03-21T09:03:40.480Z,3144.00
2023-03-21T09:04:40.621Z,3139.00
2023-03-21T09:05:40.529Z,3135.00
2023-03-21T09:06:40.504Z,3164.00
2023-03-21T09:07:40.496Z,3152.00
2023-03-21T09:08:40.476Z,3121.00
2023-03-21T09:09:40.430Z,3120.00
2023-03-21T09:10:40.393Z,3133.00
2023-03-21T09:11:40.384Z,3147.00
2023-03-21T09:12:40.368Z,3125.00
2023-03-21T09:13:40.371Z,3113.00
2023-03-21T09:14:40.386Z,3084.00
2023-03-21T09:15:40.638Z,3021.00
2023-03-21T09:16:40.359Z,2998.00
2023-03-21T09:17:40.323Z,2973.00
2023-03-21T09:18:40.312Z,2921.00
2023-03-21T09:19:40.322Z,2895.00
2023-03-21T09:20:40.302Z,2892.00
2023-03-21T09:21:40.315Z,2836.00
2023-03-21T09:22:42.590Z,2802.00
2023-03-21T09:23:40.432Z,2787.00
2023-03-21T09:24:40.379Z,2788.00
2023-03-21T09:25:40.860Z,2856.00
2023-03-21T09:26:40.370Z,2856.00
2023-03-21T09:27:41.254Z,2955.00
2023-03-21T09:28:40.340Z,3027.00
2023-03-21T09:29:40.545Z,3146.00
2023-03-21T09:30:40.324Z,3171.00
2023-03-21T09:31:40.329Z,3151.00
2023-03-21T09:32:40.262Z,3064.00
2023-03-21T09:33:40.261Z,3093.00
2023-03-21T09:34:40.229Z,3180.00
2023-03-21T09:35:40.628Z,3238.00
2023-03-21T09:36:40.223Z,3254.00
2023-03-21T09:37:40.189Z,3322.00
2023-03-21T09:38:40.176Z,3351.00
2023-03-21T09:39:40.182Z,3365.00
2023-03-21T09:40:40.183Z,3334.00
2023-03-21T09:41:40.167Z,3325.00
2023-03-21T09:42:40.124Z,3336.00
2023-03-21T09:43:40.116Z,3299.00
2023-03-21T09:44:40.112Z,3269.00
2023-03-21T09:45:40.347Z,3228.00
2023-03-21T09:46:40.196Z,3280.00
2023-03-21T09:47:40.093Z,3283.00
2023-03-21T09:48:50.588Z,3286.00
2023-03-21T09:49:41.138Z,3286.00
2023-03-21T09:50:40.010Z,3298.00
2023-03-21T09:51:40.022Z,3324.00
2023-03-21T09:52:40.014Z,3384.00
2023-03-21T09:53:39.972Z,3444.00
2023-03-21T09:54:39.981Z,3472.00
2023-03-21T09:55:40.321Z,3445.00
2023-03-21T09:56:39.946Z,3463.00
2023-03-21T09:57:39.925Z,3356.00
2023-03-21T09:58:39.912Z,3294.00
2023-03-21T09:59:39.906Z,3271.00
2023-03-21T10:00:39.921Z,3290.00
2023-03-21T10:01:39.885Z,3317.00
2023-03-21T10:02:39.855Z,3325.00
2023-03-21T10:03:39.840Z,3330.00
2023-03-21T10:04:39.935Z,3248.00
2023-03-21T10:05:40.266Z,3183.00
2023-03-21T10:06:39.795Z,3077.00
2023-03-21T10:07:39.813Z,2985.00
2023-03-21T10:08:39.800Z,2915.00
2023-03-21T10:09:39.766Z,2895.00
2023-03-21T10:10:40.163Z,2908.00
2023-03-21T10:11:39.730Z,2837.00
2023-03-21T10:12:39.718Z,2837.00
2023-03-21T10:13:39.762Z,2775.00
2023-03-21T10:14:39.706Z,2704.00
2023-03-21T10:15:39.976Z,2612.00
2023-03-21T10:16:39.708Z,2498.00
2023-03-21T10:17:39.659Z,2400.00
2023-03-21T10:18:39.660Z,2278.00
2023-03-21T10:19:39.851Z,2287.00
2023-03-21T10:20:39.609Z,2253.00
2023-03-21T10:22:03.996Z,2160.00
2023-03-21T10:22:40.594Z,2160.00
2023-03-21T10:23:39.563Z,2008.00
2023-03-21T10:24:39.552Z,1931.00
2023-03-21T10:25:39.812Z,2000.00
2023-03-21T10:26:39.559Z,2097.00
2023-03-21T10:27:39.517Z,2142.00
2023-03-21T10:29:40.550Z,2165.00
2023-03-21T10:30:39.524Z,2193.00
2023-03-21T10:31:39.546Z,2264.00
2023-03-21T10:32:39.528Z,2380.00
2023-03-21T10:33:39.466Z,2561.00
2023-03-21T10:34:39.466Z,2628.00
2023-03-21T10:35:39.993Z,2690.00
2023-03-21T10:36:39.429Z,2741.00
2023-03-21T10:37:39.418Z,2811.00
2023-03-21T10:38:39.416Z,2853.00
2023-03-21T10:39:39.417Z,2909.00
2023-03-21T10:40:39.396Z,2948.00
2023-03-21T10:41:39.372Z,2970.00
2023-03-21T10:42:39.375Z,3036.00
2023-03-21T10:43:39.366Z,3042.00
2023-03-21T10:44:39.364Z,3079.00
2023-03-21T10:45:39.602Z,3061.00
2023-03-21T10:46:39.808Z,3058.00
2023-03-21T10:47:39.568Z,3055.00
2023-03-21T10:48:39.407Z,3048.00
2023-03-21T10:50:06.464Z,3045.00
2023-03-21T10:50:40.528Z,3029.00
2023-03-21T10:51:39.231Z,2951.00
2023-03-21T10:52:39.228Z,2914.00
2023-03-21T10:53:39.206Z,2879.00
2023-03-21T10:54:39.216Z,2915.00
2023-03-21T10:55:39.498Z,2907.00
2023-03-21T10:56:39.180Z,2945.00
2023-03-21T10:57:39.168Z,2963.00
2023-03-21T10:58:39.152Z,2917.00
2023-03-21T10:59:39.129Z,2880.00
2023-03-21T11:00:39.138Z,2866.00
2023-03-21T11:01:39.216Z,2808.00
2023-03-21T11:02:39.204Z,2749.00
2023-03-21T11:03:39.088Z,2759.00
2023-03-21T11:04:39.094Z,2759.00
2023-03-21T11:05:39.346Z,2794.00
2023-03-21T11:06:39.059Z,2838.00
2023-03-21T11:07:39.040Z,2877.00
2023-03-21T11:08:39.047Z,2877.00
2023-03-21T11:09:39.026Z,2879.00
2023-03-21T11:10:39.013Z,2894.00
2023-03-21T11:11:39.001Z,2885.00
2023-03-21T11:12:38.991Z,2864.00
2023-03-21T11:13:38.979Z,2825.00
2023-03-21T11:14:38.940Z,2809.00
2023-03-21T11:15:39.320Z,2801.00
2023-03-21T11:16:39.832Z,2860.00
2023-03-21T11:17:38.912Z,2875.00
2023-03-21T11:18:38.900Z,2894.00
2023-03-21T11:19:38.863Z,2918.00
2023-03-21T11:20:38.866Z,2913.00
2023-03-21T11:21:38.854Z,2894.00
2023-03-21T11:22:38.849Z,2863.00
2023-03-21T11:23:38.821Z,2882.00
2023-03-21T11:24:38.807Z,2792.00
2023-03-21T11:25:39.017Z,2825.00
2023-03-21T11:26:38.774Z,2901.00
2023-03-21T11:27:38.786Z,2975.00
2023-03-21T11:28:38.746Z,3020.00
2023-03-21T11:29:38.710Z,3017.00
2023-03-21T11:30:38.780Z,2933.00
2023-03-21T11:31:38.691Z,2330.00
2023-03-21T11:32:38.681Z,1673.00
2023-03-21T11:33:38.663Z,1343.00
2023-03-21T11:34:38.649Z,1147.00
2023-03-21T11:35:38.944Z,879.00
2023-03-21T11:36:38.634Z,953.00
2023-03-21T11:37:38.624Z,1102.00
2023-03-21T11:38:38.629Z,1294.00
2023-03-21T11:39:38.613Z,1414.00
2023-03-21T11:40:38.626Z,1587.00
2023-03-21T11:41:38.582Z,1680.00
2023-03-21T11:42:38.576Z,1825.00
2023-03-21T11:43:38.587Z,1848.00
2023-03-21T11:44:38.573Z,1888.00
2023-03-21T11:45:39.033Z,1807.00
2023-03-21T11:46:38.630Z,1581.00
2023-03-21T11:47:38.663Z,1620.00
2023-03-21T11:48:38.576Z,1861.00
2023-03-21T11:49:38.553Z,1837.00
2023-03-21T11:50:38.528Z,1934.00
2023-03-21T11:51:38.517Z,1926.00
2023-03-21T11:52:38.487Z,1567.00
2023-03-21T11:53:38.474Z,1665.00
2023-03-21T11:54:38.480Z,1501.00
2023-03-21T11:55:38.767Z,1812.00
2023-03-21T11:56:38.535Z,1820.00
2023-03-21T11:57:38.438Z,1750.00
2023-03-21T11:58:38.581Z,1835.00
2023-03-21T11:59:38.425Z,1772.00
2023-03-21T12:00:38.385Z,1793.00
2023-03-21T12:04:38.399Z,1832.00
2023-03-21T12:39:37.927Z,2005.00
2023-03-21T12:41:37.884Z,2023.00
2023-03-21T12:42:37.865Z,2044.00
2023-03-21T12:43:37.849Z,2078.00
2023-03-21T12:44:37.844Z,2128.00
2023-03-21T12:45:46.661Z,2198.00
2023-03-21T12:46:38.934Z,2026.00
2023-03-21T12:47:37.787Z,2051.00
2023-03-21T12:48:37.790Z,2085.00
2023-03-21T12:49:37.758Z,2120.00
2023-03-21T12:50:37.742Z,2271.00
2023-03-21T12:51:37.730Z,2409.00
2023-03-21T12:52:37.805Z,2367.00
2023-03-21T12:53:37.706Z,2206.00
2023-03-21T12:54:37.705Z,2292.00
2023-03-21T12:55:38.046Z,2364.00
2023-03-21T12:56:37.672Z,2382.00
2023-03-21T12:57:40.213Z,2417.00
2023-03-21T12:58:37.637Z,2419.00
2023-03-21T12:59:37.629Z,2395.00
2023-03-21T13:00:38.144Z,2427.00
2023-03-21T13:01:37.609Z,2510.00
2023-03-21T13:02:37.583Z,2600.00
2023-03-21T13:03:40.188Z,2554.00
2023-03-21T13:04:37.629Z,2535.00
2023-03-21T13:05:37.544Z,2537.00
2023-03-21T13:06:37.549Z,2550.00
2023-03-21T13:07:37.519Z,2557.00
2023-03-21T13:08:37.614Z,2557.00
2023-03-21T13:09:38.437Z,2521.00
2023-03-21T13:10:37.766Z,2560.00
2023-03-21T13:11:37.489Z,2585.00
2023-03-21T13:12:37.469Z,2590.00
2023-03-21T13:13:37.466Z,2624.00
2023-03-21T13:14:37.458Z,2613.00
2023-03-21T13:15:37.460Z,2606.00
2023-03-21T13:16:37.491Z,2606.00
2023-03-21T13:17:37.442Z,2665.00
2023-03-21T13:18:37.406Z,2566.00
2023-03-21T13:19:37.403Z,2514.00
2023-03-21T13:20:37.640Z,2369.00
2023-03-21T13:21:37.401Z,2353.00
2023-03-21T13:22:37.369Z,2391.00
2023-03-21T13:23:37.370Z,2438.00
2023-03-21T13:24:37.444Z,2443.00
2023-03-21T13:25:37.343Z,2452.00
2023-03-21T13:26:37.349Z,2474.00
2023-03-21T13:27:37.413Z,2522.00
2023-03-21T13:28:37.327Z,2433.00
2023-03-21T13:29:37.316Z,2326.00
2023-03-21T13:30:37.764Z,2294.00
2023-03-21T13:31:50.911Z,2292.00
2023-03-21T13:32:38.326Z,2292.00
2023-03-21T13:33:37.260Z,2295.00
2023-03-21T13:34:37.256Z,2293.00
2023-03-21T13:35:37.638Z,2299.00
2023-03-21T13:36:37.276Z,2317.00
2023-03-21T13:37:37.260Z,2312.00
2023-03-21T13:38:37.228Z,2206.00
2023-03-21T13:39:37.230Z,2199.00
2023-03-21T13:40:37.837Z,2228.00
2023-03-21T13:41:37.263Z,2232.00
2023-03-21T13:42:37.211Z,2266.00
2023-03-21T13:43:37.194Z,2267.00
2023-03-21T13:44:37.174Z,2274.00
2023-03-21T13:45:37.606Z,2283.00
2023-03-21T13:46:50.615Z,2271.00
2023-03-21T13:47:38.105Z,2267.00
2023-03-21T13:48:37.628Z,2268.00
2023-03-21T13:49:37.062Z,2244.00
2023-03-21T13:50:37.080Z,2268.00
2023-03-21T13:51:37.092Z,2323.00
2023-03-21T13:52:37.017Z,2364.00
2023-03-21T13:53:36.987Z,2349.00
2023-03-21T13:54:36.990Z,2379.00
2023-03-21T13:55:37.500Z,2397.00
2023-03-21T13:56:37.034Z,2421.00
2023-03-21T13:57:36.950Z,2477.00
2023-03-21T13:58:36.926Z,2466.00
2023-03-21T13:59:36.903Z,2508.00
2023-03-21T14:00:36.894Z,2552.00
2023-03-21T14:01:36.902Z,2572.00
2023-03-21T14:02:39.433Z,2609.00
2023-03-21T14:03:36.887Z,2610.00
2023-03-21T14:04:42.849Z,2618.00
2023-03-21T14:05:37.474Z,2613.00
2023-03-21T14:06:36.834Z,2626.00
2023-03-21T14:07:36.933Z,2655.00
2023-03-21T14:08:37.825Z,2712.00
2023-03-21T14:09:36.776Z,2616.00
2023-03-21T14:10:36.757Z,2639.00
2023-03-21T14:11:38.304Z,2692.00
2023-03-21T14:12:36.822Z,2769.00
2023-03-21T14:13:48.321Z,2868.00
2023-03-21T14:14:37.702Z,2619.00
2023-03-21T14:15:40.714Z,2655.00
2023-03-21T14:16:37.677Z,2621.00
2023-03-21T14:17:36.672Z,2660.00
2023-03-21T14:18:52.722Z,2735.00
2023-03-21T14:19:37.645Z,2622.00
2023-03-21T14:20:36.652Z,2669.00
2023-03-21T14:21:36.600Z,2745.00
2023-03-21T14:22:36.601Z,2877.00
2023-03-21T14:23:36.599Z,3047.00
2023-03-21T14:24:36.575Z,3050.00
2023-03-21T14:25:41.067Z,3059.00
2023-03-21T14:26:37.557Z,3060.00
2023-03-21T14:27:36.526Z,3066.00
2023-03-21T14:28:36.608Z,3077.00
2023-03-21T14:29:36.503Z,3095.00
2023-03-21T14:30:36.541Z,3129.00
2023-03-21T14:31:36.445Z,3135.00
2023-03-21T14:32:36.455Z,3158.00
2023-03-21T14:33:36.410Z,3148.00
2023-03-21T14:34:36.429Z,3150.00
2023-03-21T14:35:36.831Z,3151.00
2023-03-21T14:36:37.210Z,3155.00
2023-03-21T14:37:36.376Z,3168.00
2023-03-21T14:38:36.348Z,3178.00
2023-03-21T14:39:36.340Z,3208.00
2023-03-21T14:40:36.793Z,3216.00
2023-03-21T14:41:36.311Z,3213.00
2023-03-21T14:42:36.292Z,3222.00
2023-03-21T14:43:36.285Z,3228.00
2023-03-21T14:44:52.824Z,3222.00
2023-03-21T14:45:37.630Z,3223.00
2023-03-21T14:46:36.289Z,3226.00
2023-03-21T14:47:36.218Z,3232.00
2023-03-21T14:48:36.220Z,3238.00
2023-03-21T14:49:36.199Z,3256.00
2023-03-21T14:50:36.190Z,3260.00
2023-03-21T14:51:36.174Z,3261.00
2023-03-21T14:52:36.161Z,3257.00
2023-03-21T14:53:36.183Z,3275.00
2023-03-21T14:54:36.112Z,3259.00
2023-03-21T14:55:36.298Z,3273.00
2023-03-21T14:56:36.095Z,3275.00
2023-03-21T14:57:36.071Z,3267.00
2023-03-21T14:58:36.080Z,3265.00
2023-03-21T14:59:36.046Z,3258.00
2023-03-21T15:00:36.157Z,3267.00
2023-03-21T15:01:36.024Z,3264.00
2023-03-21T15:02:36.048Z,3265.00
2023-03-21T15:03:36.044Z,3263.00
2023-03-21T15:04:36.005Z,3253.00
2023-03-21T15:05:36.002Z,3267.00
2023-03-21T15:06:35.956Z,3262.00
2023-03-21T16:51:34.768Z,3101.00
2023-03-21T16:52:34.759Z,3092.00
2023-03-21T17:25:34.426Z,3015.00
2023-03-21T17:26:34.404Z,3005.00
2023-03-21T17:27:34.409Z,3017.00
2023-03-21T17:28:34.383Z,3008.00
2023-03-21T17:29:34.416Z,3012.00
2023-03-21T17:30:34.415Z,3004.00
2023-03-21T17:31:34.379Z,2995.00
2023-03-21T17:32:34.347Z,3002.00
2023-03-21T17:33:34.333Z,2999.00
2023-03-21T17:34:34.307Z,3002.00
2023-03-21T17:35:34.336Z,2994.00
2023-03-21T17:36:34.307Z,3001.00
2023-03-21T17:37:34.292Z,2996.00
2023-03-21T17:38:34.265Z,2986.00
2023-03-21T17:39:34.293Z,2982.00
2023-03-21T17:40:34.248Z,2968.00
2023-03-21T17:41:34.234Z,2978.00
2023-03-21T17:42:34.222Z,2971.00
2023-03-21T17:43:34.234Z,2986.00
2023-03-21T17:44:34.200Z,2961.00
2023-03-21T17:45:34.215Z,2966.00
2023-03-21T17:46:34.199Z,2982.00
2023-03-21T17:47:34.175Z,2964.00
2023-03-21T17:48:34.156Z,2963.00
2023-03-21T17:49:34.154Z,2964.00
2023-03-21T17:50:34.151Z,2960.00
2023-03-21T17:51:34.135Z,2954.00
2023-03-21T17:52:34.130Z,2956.00
2023-03-21T17:53:34.116Z,2940.00
2023-03-21T17:54:34.097Z,2943.00
2023-03-21T17:55:34.103Z,2929.00
2023-03-21T17:56:34.087Z,2952.00
2023-03-21T17:57:34.073Z,2954.00
2023-03-21T17:58:34.056Z,2935.00
2023-03-21T17:59:34.059Z,2938.00
2023-03-21T18:00:34.054Z,2935.00
2023-03-21T18:01:34.083Z,2933.00
2023-03-21T18:02:34.022Z,2931.00
2023-03-21T18:03:34.013Z,2937.00
2023-03-21T18:04:34.073Z,2932.00
2023-03-21T18:05:34.003Z,2924.00
2023-03-21T18:06:34.023Z,2932.00
2023-03-21T18:08:05.931Z,2916.00
2023-03-21T18:08:34.980Z,2918.00
2023-03-21T18:09:33.988Z,2920.00
2023-03-21T18:10:33.991Z,2919.00
2023-03-21T18:11:33.969Z,2920.00
2023-03-21T18:12:33.940Z,2928.00
2023-03-21T18:13:33.928Z,2931.00
2023-03-21T18:14:34.874Z,2924.00
2023-03-21T18:15:35.996Z,2912.00
2023-03-21T18:16:33.918Z,2913.00
2023-03-21T18:17:33.886Z,2916.00
2023-03-21T18:18:34.020Z,2915.00
2023-03-21T18:19:33.871Z,2915.00
2023-03-21T18:20:54.958Z,2907.00
2023-03-21T18:21:35.790Z,2914.00
2023-03-21T18:22:33.829Z,2915.00
2023-03-21T18:23:33.826Z,2920.00
2023-03-21T18:24:33.815Z,2920.00
2023-03-21T18:25:33.815Z,2915.00
2023-03-21T18:26:33.808Z,2924.00
2023-03-21T18:27:35.296Z,2916.00
2023-03-21T18:28:33.793Z,2918.00
2023-03-21T18:30:18.068Z,2899.00
2023-03-21T18:30:53.434Z,2901.00
2023-03-21T18:31:33.806Z,2901.00
2023-03-21T18:32:33.791Z,2903.00
2023-03-21T18:33:33.761Z,2911.00
2023-03-21T18:34:33.754Z,2912.00
2023-03-21T18:35:33.768Z,2910.00
2023-03-21T18:36:34.474Z,2910.00
2023-03-21T18:37:35.217Z,2916.00
2023-03-21T18:38:33.745Z,2916.00
2023-03-21T18:39:33.736Z,2904.00
2023-03-21T18:40:33.723Z,2906.00
2023-03-21T18:41:33.721Z,2908.00
2023-03-21T18:42:33.716Z,2897.00